Time;durP1;ratioP1;P1;durP2;ratioP2;P2;SDS_P1;SDS_P2;PMS_P1;PMS_P2;Temp;Humidity;BMP_temperature;BMP_pressure;BME280_temperature;BME280_humidity;BME280_pressure;Samples;Min_cycle;Max_cycle;Signal;HPM_P1;HPM_P2
2021/03/17 00:00:44;;;;;;;4.00;3.60;;;4.40;99.90;;;;;;5074097;28;20205;-86
2021/03/17 00:03:12;;;;;;;5.05;3.88;;;4.40;99.90;;;;;;5072547;28;20328;-86
2021/03/17 00:05:40;;;;;;;4.43;3.28;;;4.40;99.90;;;;;;5073639;28;20709;-87
2021/03/17 00:08:07;;;;;;;5.75;3.42;;;4.40;99.90;;;;;;5074243;28;20296;-85
2021/03/17 00:10:36;;;;;;;4.18;3.78;;;4.50;99.90;;;;;;5073796;28;20209;-86
2021/03/17 00:13:03;;;;;;;7.97;4.93;;;4.40;99.90;;;;;;5073633;28;20233;-85
2021/03/17 00:15:32;;;;;;;4.10;3.67;;;4.30;99.90;;;;;;5073718;28;20235;-85
2021/03/17 00:17:59;;;;;;;3.80;3.45;;;4.40;99.90;;;;;;5071463;28;20248;-86
2021/03/17 00:20:28;;;;;;;7.47;5.13;;;4.40;99.90;;;;;;5073635;28;20657;-86
2021/03/17 00:22:55;;;;;;;6.85;5.20;;;4.40;99.90;;;;;;5073915;28;20233;-85
2021/03/17 00:25:22;;;;;;;8.55;4.45;;;4.40;99.90;;;;;;5073316;28;22168;-85
2021/03/17 00:27:49;;;;;;;9.88;5.63;;;4.30;99.90;;;;;;5073525;28;20202;-85
2021/03/17 00:30:17;;;;;;;11.48;6.20;;;4.30;99.90;;;;;;5073617;28;20292;-85
2021/03/17 00:32:43;;;;;;;5.82;5.22;;;4.30;99.90;;;;;;5072806;28;20284;-85
2021/03/17 00:35:10;;;;;;;8.50;5.85;;;4.70;99.90;;;;;;5072185;28;20217;-84
2021/03/17 00:37:37;;;;;;;7.88;5.60;;;4.10;99.90;;;;;;5073060;28;20210;-84
2021/03/17 00:40:05;;;;;;;14.25;8.43;;;4.20;99.90;;;;;;5073120;28;20201;-84
2021/03/17 00:42:31;;;;;;;10.88;6.55;;;4.20;99.90;;;;;;5073210;28;20237;-84
2021/03/17 00:44:58;;;;;;;13.05;8.07;;;4.30;99.90;;;;;;5073399;28;20227;-84
2021/03/17 00:47:24;;;;;;;11.63;6.65;;;4.30;99.90;;;;;;5073063;28;20636;-86
2021/03/17 00:49:51;;;;;;;13.68;8.80;;;4.30;99.90;;;;;;5070807;28;20201;-84
2021/03/17 00:52:17;;;;;;;13.32;8.23;;;4.30;99.90;;;;;;5072968;28;20233;-87
2021/03/17 00:54:44;;;;;;;15.80;9.45;;;4.30;99.90;;;;;;5073287;28;20236;-84
2021/03/17 00:57:11;;;;;;;11.32;8.02;;;4.30;99.90;;;;;;5072983;28;20730;-83
2021/03/17 00:59:37;;;;;;;11.45;7.47;;;4.30;99.90;;;;;;5073029;28;20229;-84
2021/03/17 01:02:04;;;;;;;10.02;6.38;;;4.30;99.90;;;;;;5073075;28;20223;-84
2021/03/17 01:04:30;;;;;;;11.20;6.38;;;4.20;99.90;;;;;;5071139;28;20237;-83
2021/03/17 01:06:57;;;;;;;9.18;6.03;;;4.30;99.90;;;;;;5073544;28;20229;-85
2021/03/17 01:09:23;;;;;;;22.77;10.50;;;4.20;99.90;;;;;;5074246;28;20628;-84
2021/03/17 01:11:50;;;;;;;13.45;8.00;;;4.30;99.90;;;;;;5073292;28;20237;-83
2021/03/17 01:14:17;;;;;;;10.15;6.35;;;4.20;99.90;;;;;;5073625;28;20229;-83
2021/03/17 01:16:43;;;;;;;9.45;6.20;;;4.20;99.90;;;;;;5088094;28;20201;-86
2021/03/17 01:19:11;;;;;;;5.53;4.90;;;4.20;99.90;;;;;;5085609;28;20297;-84
2021/03/17 01:21:37;;;;;;;5.45;4.50;;;4.30;99.90;;;;;;5073822;28;20225;-83
2021/03/17 01:24:04;;;;;;;9.18;6.85;;;4.40;99.90;;;;;;5084593;28;20205;-83
2021/03/17 01:26:30;;;;;;;7.55;4.93;;;4.40;99.90;;;;;;5091544;28;20236;-84
2021/03/17 01:28:58;;;;;;;7.28;5.70;;;4.30;99.90;;;;;;5093628;28;20212;-83
2021/03/17 01:31:24;;;;;;;8.10;5.30;;;4.20;99.90;;;;;;5074434;28;20213;-85
2021/03/17 01:33:50;;;;;;;6.60;5.20;;;4.20;99.90;;;;;;5072667;28;20292;-83
2021/03/17 01:36:17;;;;;;;8.65;5.75;;;4.20;99.90;;;;;;5072950;28;20294;-84
2021/03/17 01:38:43;;;;;;;8.38;5.57;;;4.30;99.90;;;;;;5072846;28;20293;-85
2021/03/17 01:41:10;;;;;;;9.18;5.60;;;4.20;99.90;;;;;;5072609;28;20225;-87
2021/03/17 01:43:36;;;;;;;7.40;5.22;;;5.30;99.90;;;;;;5072259;28;20205;-84
2021/03/17 01:46:04;;;;;;;8.73;5.80;;;4.10;99.90;;;;;;5072761;28;20229;-83
2021/03/17 01:48:30;;;;;;;6.72;4.40;;;4.20;99.90;;;;;;5071291;28;20620;-83
2021/03/17 01:50:58;;;;;;;6.28;5.65;;;4.20;99.90;;;;;;5071639;28;20297;-83
2021/03/17 01:53:27;;;;;;;9.10;5.47;;;4.20;99.90;;;;;;5072658;28;20216;-85
2021/03/17 01:55:54;;;;;;;11.07;6.18;;;4.10;99.90;;;;;;5071330;28;20206;-84
2021/03/17 01:58:22;;;;;;;10.90;6.40;;;5.00;99.90;;;;;;5072673;28;20263;-86
2021/03/17 02:00:49;;;;;;;6.20;4.53;;;4.20;99.90;;;;;;5072639;28;20296;-84
2021/03/17 02:03:16;;;;;;;6.75;4.32;;;4.20;99.90;;;;;;5071255;28;20324;-82
2021/03/17 02:05:44;;;;;;;9.98;6.32;;;4.20;99.90;;;;;;5072073;28;20320;-83
2021/03/17 02:08:12;;;;;;;12.82;5.90;;;4.90;99.90;;;;;;5072462;28;20728;-84
2021/03/17 02:10:39;;;;;;;7.88;5.10;;;4.30;99.90;;;;;;5072474;28;20677;-84
2021/03/17 02:13:45;;;;;;;9.02;5.80;;;4.30;99.90;;;;;;5072726;28;20237;-85
2021/03/17 02:16:17;;;;;;;9.48;5.60;;;4.30;99.90;;;;;;5065892;28;20205;-86
2021/03/17 02:18:57;;;;;;;10.45;6.80;;;4.30;99.90;;;;;;5072898;28;20225;-83
2021/03/17 02:21:47;;;;;;;6.88;4.82;;;4.40;99.90;;;;;;5076071;28;20638;-84
2021/03/17 02:24:20;;;;;;;6.05;4.55;;;4.20;99.90;;;;;;5076021;28;20225;-85
2021/03/17 02:27:19;;;;;;;8.95;6.78;;;4.30;99.90;;;;;;5074678;28;20229;-85
2021/03/17 02:30:36;;;;;;;13.85;7.13;;;4.30;99.90;;;;;;5073188;28;20342;-88
2021/03/17 02:33:40;;;;;;;7.68;5.97;;;4.30;99.90;;;;;;5074714;28;20197;-87
2021/03/17 02:36:11;;;;;;;6.40;4.53;;;4.30;99.90;;;;;;5074739;28;20205;-85
2021/03/17 02:38:42;;;;;;;6.47;4.85;;;4.30;99.90;;;;;;5075527;28;20661;-85
2021/03/17 02:41:12;;;;;;;8.27;5.72;;;4.20;99.90;;;;;;5075225;28;20619;-85
2021/03/17 02:43:45;;;;;;;5.28;4.78;;;4.10;99.90;;;;;;5075439;28;20244;-87
2021/03/17 02:46:16;;;;;;;12.18;5.13;;;4.10;99.90;;;;;;5074498;28;20279;-85
2021/03/17 02:48:47;;;;;;;9.80;6.13;;;4.10;99.90;;;;;;5074759;28;20233;-88
2021/03/17 02:51:21;;;;;;;11.57;6.82;;;4.20;99.90;;;;;;5076252;28;20229;-86
2021/03/17 02:53:50;;;;;;;7.25;4.82;;;4.20;99.90;;;;;;5075691;28;20284;-85
2021/03/17 02:56:16;;;;;;;7.55;5.50;;;4.10;99.90;;;;;;5074187;28;20205;-85
2021/03/17 02:58:45;;;;;;;8.02;4.70;;;4.10;99.90;;;;;;5075014;28;20293;-85
2021/03/17 03:01:15;;;;;;;5.60;4.95;;;4.20;99.90;;;;;;5075263;28;20300;-85
2021/03/17 03:03:45;;;;;;;8.25;5.00;;;5.40;99.90;;;;;;5073856;28;20601;-84
2021/03/17 03:06:12;;;;;;;9.43;6.05;;;4.10;99.90;;;;;;5074793;28;20233;-85
2021/03/17 03:08:41;;;;;;;7.65;5.07;;;4.10;99.90;;;;;;5074950;28;20229;-87
2021/03/17 03:11:10;;;;;;;8.93;5.70;;;5.00;99.90;;;;;;5074698;28;20543;-87
2021/03/17 03:13:38;;;;;;;10.10;5.95;;;4.00;99.90;;;;;;5074538;28;20331;-84
2021/03/17 03:16:06;;;;;;;6.90;5.25;;;4.10;99.90;;;;;;5074809;28;20296;-84
2021/03/17 03:18:34;;;;;;;6.95;5.85;;;4.10;99.90;;;;;;5072147;28;20280;-89
2021/03/17 03:21:02;;;;;;;8.52;5.25;;;4.00;99.90;;;;;;5074685;28;20342;-84
2021/03/17 03:23:30;;;;;;;11.48;5.85;;;4.10;99.90;;;;;;5074743;28;20299;-86
2021/03/17 03:25:58;;;;;;;8.85;5.55;;;4.10;99.90;;;;;;5074558;28;20312;-86
2021/03/17 03:28:25;;;;;;;10.52;6.20;;;4.00;99.90;;;;;;5074029;28;20198;-85
2021/03/17 03:30:54;;;;;;;9.43;6.43;;;4.00;99.90;;;;;;5074384;28;20197;-85
2021/03/17 03:33:21;;;;;;;7.88;5.65;;;4.10;99.90;;;;;;5072995;28;20282;-85
2021/03/17 03:35:49;;;;;;;10.98;6.00;;;4.10;99.90;;;;;;5072985;28;20198;-85
2021/03/17 03:38:18;;;;;;;10.48;6.85;;;4.00;99.90;;;;;;5074424;28;20201;-87
2021/03/17 03:40:44;;;;;;;7.05;4.68;;;4.30;99.90;;;;;;5074229;28;20315;-86
2021/03/17 03:43:12;;;;;;;9.18;5.38;;;4.10;99.90;;;;;;5074212;28;20237;-86
2021/03/17 03:45:39;;;;;;;10.88;6.55;;;4.10;99.90;;;;;;5073732;28;20248;-86
2021/03/17 03:48:07;;;;;;;9.85;6.30;;;4.20;99.90;;;;;;5072742;28;20229;-87
2021/03/17 03:50:36;;;;;;;13.68;7.25;;;4.20;99.90;;;;;;5073268;28;20232;-86
2021/03/17 03:53:11;;;;;;;12.75;6.90;;;4.20;99.90;;;;;;5073874;28;20665;-87
2021/03/17 03:55:47;;;;;;;7.82;5.32;;;4.30;99.90;;;;;;5073886;28;20201;-87
2021/03/17 03:58:24;;;;;;;10.27;6.40;;;4.20;99.90;;;;;;5073652;28;20257;-87
2021/03/17 04:00:54;;;;;;;10.13;6.10;;;4.20;99.90;;;;;;5073838;28;20288;-86
2021/03/17 04:03:24;;;;;;;14.13;8.00;;;4.10;99.90;;;;;;5072510;28;20729;-84
2021/03/17 04:05:53;;;;;;;10.85;7.13;;;4.10;99.90;;;;;;5073428;28;20774;-85
2021/03/17 04:08:20;;;;;;;8.40;5.60;;;4.10;99.90;;;;;;5073692;28;20232;-85
2021/03/17 04:10:56;;;;;;;11.43;6.85;;;4.20;99.90;;;;;;5073740;28;20241;-85
2021/03/17 04:13:23;;;;;;;10.32;6.50;;;4.20;99.90;;;;;;5074883;28;20255;-85
2021/03/17 04:15:52;;;;;;;9.98;7.15;;;4.20;99.90;;;;;;5073728;28;20205;-84
2021/03/17 04:18:20;;;;;;;8.73;5.97;;;4.10;99.90;;;;;;5071339;28;20332;-85
2021/03/17 04:20:51;;;;;;;10.73;6.88;;;4.20;99.90;;;;;;5073484;28;20198;-85
2021/03/17 04:23:17;;;;;;;10.68;5.68;;;4.10;99.90;;;;;;5073500;28;20244;-84
2021/03/17 04:25:47;;;;;;;10.25;6.90;;;4.10;99.90;;;;;;5073280;28;20296;-85
2021/03/17 04:28:18;;;;;;;8.45;5.50;;;4.20;99.90;;;;;;5073473;28;20263;-86
2021/03/17 04:30:46;;;;;;;9.32;6.80;;;4.20;99.90;;;;;;5073595;28;20225;-85
2021/03/17 04:33:14;;;;;;;12.98;7.60;;;4.10;99.90;;;;;;5072061;28;20205;-86
2021/03/17 04:35:42;;;;;;;16.17;7.15;;;4.20;99.90;;;;;;5072424;28;20202;-84
2021/03/17 04:38:10;;;;;;;7.57;5.32;;;4.20;99.90;;;;;;5072966;28;20293;-85
2021/03/17 04:40:38;;;;;;;8.52;6.53;;;4.10;99.90;;;;;;5072387;28;20239;-83
2021/03/17 04:43:06;;;;;;;10.27;7.05;;;3.90;99.90;;;;;;5072559;28;20285;-85
2021/03/17 04:45:34;;;;;;;9.85;6.70;;;4.00;99.90;;;;;;5073083;28;20236;-86
2021/03/17 04:48:02;;;;;;;9.18;6.15;;;4.00;99.90;;;;;;5071725;28;20288;-85
2021/03/17 04:50:29;;;;;;;11.43;7.50;;;4.20;99.90;;;;;;5072217;28;20762;-84
2021/03/17 04:52:56;;;;;;;13.57;7.55;;;4.20;99.90;;;;;;5073187;28;20645;-86
2021/03/17 04:55:23;;;;;;;11.80;7.18;;;4.20;99.90;;;;;;5072908;28;20232;-84
2021/03/17 04:57:51;;;;;;;10.55;7.78;;;4.20;99.90;;;;;;5072711;28;20328;-84
2021/03/17 05:00:21;;;;;;;9.65;8.43;;;4.20;99.90;;;;;;5072866;28;20201;-84
2021/03/17 05:02:53;;;;;;;12.38;7.15;;;4.30;99.90;;;;;;5072797;28;20292;-85
2021/03/17 05:05:20;;;;;;;11.02;6.78;;;4.30;99.90;;;;;;5071428;28;20708;-85
2021/03/17 05:07:48;;;;;;;14.20;8.82;;;4.20;99.90;;;;;;5072815;28;20232;-84
2021/03/17 05:10:16;;;;;;;14.20;9.15;;;4.20;99.90;;;;;;5072809;28;20236;-83
2021/03/17 05:12:43;;;;;;;10.48;7.03;;;5.00;99.90;;;;;;5072770;28;20304;-84
2021/03/17 05:15:11;;;;;;;13.50;8.70;;;4.20;99.90;;;;;;5072819;28;20284;-86
2021/03/17 05:17:39;;;;;;;13.77;8.73;;;4.10;99.90;;;;;;5073731;28;20244;-86
2021/03/17 05:20:11;;;;;;;10.48;8.00;;;4.10;99.90;;;;;;5071783;28;20206;-85
2021/03/17 05:22:38;;;;;;;13.13;8.05;;;4.20;99.90;;;;;;5073384;28;20244;-85
2021/03/17 05:25:07;;;;;;;15.45;9.02;;;4.20;99.90;;;;;;5073315;28;20280;-84
2021/03/17 05:27:36;;;;;;;11.07;8.15;;;4.30;99.90;;;;;;5093335;28;20234;-86
2021/03/17 05:30:07;;;;;;;11.60;8.70;;;4.90;99.90;;;;;;5093949;28;20679;-85
2021/03/17 05:32:34;;;;;;;12.65;8.82;;;4.10;99.90;;;;;;5074702;28;20267;-85
2021/03/17 05:35:03;;;;;;;17.65;10.95;;;4.20;99.90;;;;;;5082902;28;20231;-83
2021/03/17 05:37:31;;;;;;;14.15;9.55;;;4.20;99.90;;;;;;5093298;28;20225;-84
2021/03/17 05:39:57;;;;;;;14.35;9.30;;;4.20;99.90;;;;;;5095357;28;20211;-83
2021/03/17 05:42:25;;;;;;;18.17;10.15;;;4.10;99.90;;;;;;5077774;28;20229;-88
2021/03/17 05:44:54;;;;;;;19.17;10.23;;;4.10;99.90;;;;;;5074602;28;20292;-86
2021/03/17 05:47:22;;;;;;;12.95;8.68;;;4.10;99.90;;;;;;5073104;28;20310;-87
2021/03/17 05:49:49;;;;;;;18.63;11.15;;;4.10;99.90;;;;;;5071171;28;20258;-82
2021/03/17 05:52:17;;;;;;;14.93;9.18;;;4.20;99.90;;;;;;5075087;28;20233;-85
2021/03/17 05:54:44;;;;;;;14.80;9.55;;;4.10;99.90;;;;;;5076227;28;20319;-84
2021/03/17 05:57:11;;;;;;;18.40;12.02;;;4.20;99.90;;;;;;5075950;28;20701;-83
2021/03/17 05:59:39;;;;;;;20.38;10.90;;;4.20;99.90;;;;;;5076320;28;20296;-86
2021/03/17 06:02:08;;;;;;;17.63;9.95;;;4.20;99.90;;;;;;5076175;28;20205;-87
2021/03/17 06:04:35;;;;;;;17.42;10.52;;;4.00;99.90;;;;;;5075069;28;20237;-84
2021/03/17 06:07:03;;;;;;;16.67;10.93;;;3.90;99.90;;;;;;5075908;28;20320;-86
2021/03/17 06:09:32;;;;;;;17.27;9.10;;;3.60;99.90;;;;;;5076029;28;20201;-89
2021/03/17 06:12:00;;;;;;;15.35;11.90;;;4.00;99.90;;;;;;5076203;28;20209;-86
2021/03/17 06:14:31;;;;;;;19.40;10.88;;;3.50;99.90;;;;;;5076124;28;20284;-87
2021/03/17 06:16:59;;;;;;;15.10;8.32;;;3.50;99.90;;;;;;5075984;28;20229;-86
2021/03/17 06:19:29;;;;;;;24.73;12.38;;;3.50;99.90;;;;;;5073595;28;20308;-87
2021/03/17 06:21:57;;;;;;;19.42;10.80;;;3.60;99.90;;;;;;5075970;28;20599;-86
2021/03/17 06:24:24;;;;;;;16.77;11.88;;;3.60;99.90;;;;;;5075642;28;20206;-87
2021/03/17 06:26:51;;;;;;;28.00;14.10;;;3.60;99.90;;;;;;5075568;28;20315;-89
2021/03/17 06:29:18;;;;;;;19.30;10.95;;;3.70;99.90;;;;;;5075608;28;20681;-86
2021/03/17 06:31:47;;;;;;;22.63;12.85;;;3.70;99.90;;;;;;5075820;28;20300;-87
2021/03/17 06:34:14;;;;;;;19.38;11.43;;;3.80;99.90;;;;;;5074321;28;20239;-89
2021/03/17 06:36:50;;;;;;;17.20;11.23;;;4.30;99.90;;;;;;5075167;28;20230;-90
2021/03/17 06:39:17;;;;;;;22.80;12.93;;;3.80;99.90;;;;;;5075686;28;20245;-90
2021/03/17 06:41:46;;;;;;;19.85;11.50;;;3.80;99.90;;;;;;5075804;28;20289;-90
2021/03/17 06:44:19;;;;;;;22.73;13.50;;;4.00;99.90;;;;;;5075552;28;20201;-89
2021/03/17 06:47:13;;;;;;;20.05;12.68;;;3.90;99.90;;;;;;5076029;28;20294;-89
2021/03/17 06:49:40;;;;;;;21.85;12.55;;;4.00;99.90;;;;;;5073700;28;20217;-87
2021/03/17 06:52:25;;;;;;;21.35;13.18;;;4.00;99.90;;;;;;5075583;28;20285;-86
2021/03/17 06:55:10;;;;;;;22.75;12.10;;;4.10;99.90;;;;;;5075183;28;20285;-87
2021/03/17 06:57:38;;;;;;;32.55;14.93;;;4.20;99.90;;;;;;5074796;28;20237;-85
2021/03/17 07:00:23;;;;;;;28.75;14.82;;;4.10;99.90;;;;;;5074776;28;20197;-82
2021/03/17 07:02:52;;;;;;;28.15;14.85;;;4.20;99.90;;;;;;5074071;28;20399;-87
2021/03/17 07:05:19;;;;;;;37.13;15.93;;;4.30;99.90;;;;;;5073139;28;20268;-88
2021/03/17 07:07:49;;;;;;;29.17;15.75;;;4.60;99.90;;;;;;5074803;28;20278;-90
2021/03/17 07:10:27;;;;;;;25.30;14.55;;;4.40;99.90;;;;;;5074703;28;21144;-88
2021/03/17 07:12:55;;;;;;;27.83;14.85;;;4.40;99.90;;;;;;5074629;28;20208;-84
2021/03/17 07:15:22;;;;;;;30.40;14.40;;;4.40;99.90;;;;;;5074905;28;20197;-88
2021/03/17 07:17:49;;;;;;;25.02;15.00;;;4.50;99.90;;;;;;5074909;28;20288;-86
2021/03/17 07:20:35;;;;;;;25.58;13.13;;;4.70;99.90;;;;;;5072160;28;20304;-84
2021/03/17 07:23:24;;;;;;;28.63;16.10;;;4.60;99.90;;;;;;5075239;28;20205;-92
2021/03/17 07:26:18;;;;;;;23.38;14.10;;;4.80;99.90;;;;;;5074746;28;20205;-84
2021/03/17 07:29:04;;;;;;;25.95;15.68;;;4.80;99.90;;;;;;5074698;28;20202;-86
2021/03/17 07:31:32;;;;;;;25.23;14.43;;;4.90;99.90;;;;;;5070796;28;20653;-88
2021/03/17 07:34:26;;;;;;;21.35;13.00;;;5.00;99.90;;;;;;5072644;28;20290;-85
2021/03/17 07:36:57;;;;;;;19.67;13.05;;;5.10;99.90;;;;;;5075623;28;20209;-84
2021/03/17 07:39:26;;;;;;;26.45;14.93;;;5.10;99.90;;;;;;5074136;28;20229;-84
2021/03/17 07:41:54;;;;;;;22.30;13.95;;;4.90;99.90;;;;;;5074397;28;20289;-84
2021/03/17 07:44:22;;;;;;;26.40;14.07;;;5.00;99.90;;;;;;5074568;28;20247;-88
2021/03/17 07:46:50;;;;;;;23.48;12.75;;;5.10;99.90;;;;;;5074300;28;20252;-86
2021/03/17 07:49:19;;;;;;;23.08;13.52;;;5.20;99.90;;;;;;5073385;28;20205;-89
2021/03/17 07:51:47;;;;;;;17.02;11.93;;;5.30;99.90;;;;;;5073625;28;20197;-88
2021/03/17 07:54:27;;;;;;;18.75;11.25;;;5.10;99.90;;;;;;5074413;28;20564;-86
2021/03/17 07:56:55;;;;;;;19.40;12.20;;;5.20;99.90;;;;;;5074120;28;20257;-87
2021/03/17 07:59:22;;;;;;;22.88;13.50;;;5.10;99.90;;;;;;5074179;28;20205;-90
2021/03/17 08:01:50;;;;;;;17.48;10.98;;;5.10;99.90;;;;;;5074135;28;20205;-87
2021/03/17 08:04:16;;;;;;;12.73;9.25;;;5.00;99.90;;;;;;5072635;28;20284;-83
2021/03/17 08:06:43;;;;;;;18.48;12.20;;;5.10;99.90;;;;;;5073470;28;20758;-85
2021/03/17 08:09:10;;;;;;;20.40;12.25;;;5.30;99.90;;;;;;5073851;28;20284;-85
2021/03/17 08:11:38;;;;;;;20.38;11.95;;;5.50;99.90;;;;;;5073887;28;20209;-84
2021/03/17 08:14:07;;;;;;;22.20;13.82;;;5.70;99.90;;;;;;5073774;28;20260;-86
2021/03/17 08:16:35;;;;;;;23.00;13.07;;;5.70;99.90;;;;;;5073799;28;20217;-87
2021/03/17 08:19:02;;;;;;;11.60;7.45;;;6.20;99.90;;;;;;5071571;28;20205;-88
2021/03/17 08:21:51;;;;;;;15.50;10.60;;;6.00;99.90;;;;;;5073455;28;20247;-86
2021/03/17 08:24:40;;;;;;;14.50;11.75;;;6.10;99.90;;;;;;5073836;28;20293;-88
2021/03/17 08:27:31;;;;;;;18.52;11.05;;;6.10;99.90;;;;;;5073477;28;20230;-84
2021/03/17 08:30:14;;;;;;;17.40;9.35;;;6.40;99.90;;;;;;5063284;28;20209;-82
2021/03/17 08:33:02;;;;;;;10.18;6.90;;;6.30;99.90;;;;;;5073159;28;20265;-89
2021/03/17 08:36:01;;;;;;;13.02;8.85;;;6.00;99.90;;;;;;5071816;28;20230;-88
2021/03/17 08:38:43;;;;;;;10.80;8.43;;;5.60;99.90;;;;;;5072272;28;20207;-88
2021/03/17 08:41:09;;;;;;;17.15;11.35;;;5.80;99.90;;;;;;5073671;28;20300;-89
2021/03/17 08:43:45;;;;;;;10.48;7.45;;;6.00;99.90;;;;;;5073729;28;20555;-86
2021/03/17 08:46:14;;;;;;;10.95;7.97;;;6.20;99.90;;;;;;5073169;28;20269;-83
2021/03/17 08:48:55;;;;;;;10.60;6.53;;;6.50;99.90;;;;;;5073571;28;20293;-89
2021/03/17 08:52:03;;;;;;;9.77;6.80;;;6.70;99.90;;;;;;5073081;28;20205;-88
2021/03/17 08:54:56;;;;;;;14.15;6.30;;;6.80;99.90;;;;;;5072670;28;20213;-82
2021/03/17 08:57:23;;;;;;;9.85;7.40;;;6.80;99.90;;;;;;5073097;28;20319;-83
2021/03/17 08:59:52;;;;;;;10.10;6.18;;;6.70;99.90;;;;;;5072972;28;20235;-84
2021/03/17 09:02:20;;;;;;;9.38;5.97;;;6.70;99.90;;;;;;5073286;28;20221;-87
2021/03/17 09:04:48;;;;;;;10.18;6.78;;;6.70;99.90;;;;;;5071885;28;20296;-88
2021/03/17 09:07:16;;;;;;;9.02;7.05;;;6.70;99.90;;;;;;5073068;28;20320;-84
2021/03/17 09:09:47;;;;;;;8.57;5.80;;;6.60;99.90;;;;;;5073116;28;20241;-87
2021/03/17 09:12:14;;;;;;;9.13;4.80;;;6.70;99.90;;;;;;5073400;28;20685;-88
2021/03/17 09:14:41;;;;;;;8.40;5.90;;;6.80;99.90;;;;;;5073489;28;20205;-87
2021/03/17 09:17:32;;;;;;;9.15;5.32;;;6.90;99.90;;;;;;5073339;28;20673;-86
2021/03/17 09:20:15;;;;;;;6.90;4.22;;;7.00;99.90;;;;;;5071370;28;20392;-86
2021/03/17 09:22:47;;;;;;;8.43;6.63;;;7.20;99.90;;;;;;5074068;28;20201;-86
2021/03/17 09:25:18;;;;;;;11.70;5.07;;;7.50;99.90;;;;;;5077285;28;20582;-88
2021/03/17 09:27:52;;;;;;;6.40;5.30;;;7.90;99.90;;;;;;5077062;28;20316;-91
2021/03/17 09:30:21;;;;;;;6.43;4.10;;;8.20;99.90;;;;;;5086222;28;20456;-82
2021/03/17 09:32:50;;;;;;;9.60;4.60;;;8.10;99.60;;;;;;5090851;28;20947;-87
2021/03/17 09:35:18;;;;;;;5.90;4.63;;;8.00;99.90;;;;;;5081943;28;20455;-85
2021/03/17 09:37:45;;;;;;;15.23;5.37;;;7.90;99.90;;;;;;5088107;28;20823;-85
2021/03/17 09:40:16;;;;;;;8.90;5.47;;;7.70;99.90;;;;;;5077081;28;20947;-87
2021/03/17 09:42:43;;;;;;;8.90;4.25;;;7.70;98.30;;;;;;5093940;28;20443;-88
2021/03/17 09:45:11;;;;;;;5.43;4.65;;;7.60;99.80;;;;;;5097959;28;20202;-84
2021/03/17 09:47:38;;;;;;;12.60;5.05;;;7.90;98.60;;;;;;5097257;28;20206;-86
2021/03/17 09:50:16;;;;;;;4.30;3.90;;;7.60;99.00;;;;;;5086714;28;20213;-87
2021/03/17 09:52:45;;;;;;;2.83;2.63;;;8.00;97.80;;;;;;5084318;28;20225;-88
2021/03/17 09:55:28;;;;;;;4.80;3.00;;;8.00;97.00;;;;;;5080494;28;20991;-87
2021/03/17 09:57:59;;;;;;;6.60;4.10;;;8.30;97.40;;;;;;5084647;28;20955;-89
2021/03/17 10:00:26;;;;;;;3.17;2.80;;;8.20;97.60;;;;;;5083500;28;20471;-85
2021/03/17 10:02:52;;;;;;;4.70;3.60;;;8.20;97.80;;;;;;5076438;28;20452;-83
2021/03/17 10:05:20;;;;;;;5.27;3.63;;;8.20;95.80;;;;;;5082606;28;20488;-87
2021/03/17 10:07:46;;;;;;;6.23;3.63;;;8.10;96.20;;;;;;5077774;28;20495;-88
2021/03/17 10:10:13;;;;;;;4.70;3.83;;;7.90;95.90;;;;;;5078597;28;20478;-87
2021/03/17 10:12:43;;;;;;;6.13;4.45;;;7.70;97.00;;;;;;5076808;28;20947;-84
2021/03/17 10:15:11;;;;;;;4.47;4.03;;;7.40;98.00;;;;;;5077722;28;20217;-82
2021/03/17 10:17:38;;;;;;;5.97;3.70;;;7.10;97.70;;;;;;5075712;28;20542;-88
2021/03/17 10:20:08;;;;;;;5.80;3.78;;;6.90;98.90;;;;;;5073678;28;20300;-86
2021/03/17 10:22:35;;;;;;;2.60;2.10;;;6.60;99.90;;;;;;5076148;28;20205;-83
2021/03/17 10:25:08;;;;;;;4.70;3.10;;;6.20;99.80;;;;;;5079145;28;20237;-88
2021/03/17 10:27:37;;;;;;;6.50;3.10;;;5.90;99.90;;;;;;5076637;28;20236;-89
2021/03/17 10:30:07;;;;;;;3.92;3.05;;;5.70;99.90;;;;;;5077048;28;20206;-82
2021/03/17 10:32:36;;;;;;;4.35;3.53;;;5.60;99.90;;;;;;5075988;28;20202;-88
2021/03/17 10:35:07;;;;;;;4.72;3.45;;;5.50;99.90;;;;;;5078168;28;20205;-87
2021/03/17 10:37:35;;;;;;;6.05;3.95;;;5.40;99.90;;;;;;5075682;28;20288;-83
2021/03/17 10:40:10;;;;;;;9.75;4.78;;;5.70;99.90;;;;;;5079422;28;20691;-88
2021/03/17 10:42:49;;;;;;;8.20;5.95;;;5.80;99.90;;;;;;5077741;28;20201;-85
2021/03/17 10:45:18;;;;;;;9.63;5.05;;;6.50;99.90;;;;;;5076863;28;20284;-90
2021/03/17 10:47:46;;;;;;;9.70;4.60;;;6.90;99.90;;;;;;5076842;28;20268;-84
2021/03/17 10:50:16;;;;;;;5.22;3.72;;;7.40;99.90;;;;;;5073298;28;20260;-83
2021/03/17 10:52:45;;;;;;;5.85;3.67;;;7.10;99.90;;;;;;5076215;28;20202;-88
2021/03/17 10:55:15;;;;;;;6.32;4.60;;;6.70;99.90;;;;;;5075442;28;20296;-87
2021/03/17 10:57:42;;;;;;;5.53;4.20;;;6.60;99.90;;;;;;5076592;28;20732;-84
2021/03/17 11:00:28;;;;;;;7.20;4.90;;;6.60;99.90;;;;;;5075617;28;20289;-87
2021/03/17 11:02:55;;;;;;;6.75;4.75;;;6.80;99.90;;;;;;5078501;28;20285;-85
2021/03/17 11:05:27;;;;;;;8.13;5.32;;;6.90;99.90;;;;;;5077785;28;20238;-85
2021/03/17 11:08:05;;;;;;;13.23;6.68;;;6.70;99.90;;;;;;5075140;28;20233;-81
2021/03/17 11:10:46;;;;;;;11.75;5.55;;;6.90;99.90;;;;;;5075071;28;20211;-85
2021/03/17 11:13:42;;;;;;;7.38;5.10;;;7.00;99.90;;;;;;5074986;28;20212;-89
2021/03/17 11:16:36;;;;;;;7.65;5.03;;;6.90;99.90;;;;;;5074756;28;20206;-90
2021/03/17 11:19:09;;;;;;;6.55;4.85;;;6.90;99.90;;;;;;5072804;28;20304;-90
2021/03/17 11:21:37;;;;;;;4.57;3.70;;;6.90;99.90;;;;;;5074870;28;20235;-89
2021/03/17 11:24:06;;;;;;;4.50;3.83;;;6.80;99.90;;;;;;5055918;28;20672;-82
2021/03/17 11:26:36;;;;;;;5.57;3.30;;;6.70;99.90;;;;;;5074344;28;20315;-83
2021/03/17 11:29:13;;;;;;;4.20;2.72;;;6.70;99.90;;;;;;5074792;28;20265;-82
2021/03/17 11:31:41;;;;;;;4.85;2.92;;;6.50;99.90;;;;;;5074620;28;20300;-85
2021/03/17 11:34:10;;;;;;;4.75;2.50;;;6.50;99.90;;;;;;5073193;28;20343;-84
2021/03/17 11:36:38;;;;;;;6.85;3.55;;;6.40;99.90;;;;;;5074623;28;20358;-88
2021/03/17 11:39:07;;;;;;;5.18;3.53;;;6.30;99.90;;;;;;5074733;28;20202;-91
2021/03/17 11:41:34;;;;;;;3.50;3.03;;;6.30;99.90;;;;;;5074186;28;20207;-86
2021/03/17 11:44:00;;;;;;;4.95;2.47;;;6.30;99.90;;;;;;5074792;28;20240;-89
2021/03/17 11:46:27;;;;;;;3.58;2.90;;;6.20;99.90;;;;;;5074332;28;20681;-89
2021/03/17 11:48:54;;;;;;;6.53;3.17;;;6.20;99.90;;;;;;5071905;28;20249;-89
2021/03/17 11:51:21;;;;;;;3.33;2.45;;;6.20;99.90;;;;;;5074090;28;20716;-86
2021/03/17 11:53:48;;;;;;;6.15;3.60;;;6.10;99.90;;;;;;5073013;28;20237;-89
2021/03/17 11:56:16;;;;;;;6.65;3.50;;;6.10;99.90;;;;;;5074266;28;20288;-88
2021/03/17 11:58:43;;;;;;;2.80;2.50;;;6.00;99.90;;;;;;5074569;28;20225;-88
2021/03/17 12:01:09;;;;;;;3.22;2.67;;;6.00;99.90;;;;;;5074900;28;20213;-90
2021/03/17 12:03:37;;;;;;;7.13;3.80;;;5.90;99.90;;;;;;5072037;28;20197;-89
2021/03/17 12:06:04;;;;;;;9.20;2.88;;;5.90;99.90;;;;;;5073484;28;20609;-92
2021/03/17 12:08:30;;;;;;;5.25;3.45;;;5.80;99.90;;;;;;5054688;28;20229;-90
2021/03/17 12:10:57;;;;;;;3.20;2.90;;;5.90;99.90;;;;;;5069899;28;20709;-81
2021/03/17 12:13:26;;;;;;;7.82;2.80;;;5.90;99.90;;;;;;5067474;28;20253;-84
2021/03/17 12:15:52;;;;;;;3.78;2.75;;;5.60;99.90;;;;;;5067696;28;20263;-86
2021/03/17 12:18:20;;;;;;;4.43;3.05;;;5.70;99.90;;;;;;5071880;28;20233;-86
2021/03/17 12:20:46;;;;;;;5.35;2.90;;;5.70;99.90;;;;;;5071045;28;20693;-87
2021/03/17 12:23:15;;;;;;;4.60;3.08;;;5.50;99.90;;;;;;5072138;28;20605;-88
2021/03/17 12:25:42;;;;;;;5.75;3.65;;;5.10;99.90;;;;;;5071637;28;20198;-86
2021/03/17 12:28:09;;;;;;;12.25;4.15;;;4.80;99.90;;;;;;5069343;28;20221;-87
2021/03/17 12:30:38;;;;;;;6.25;3.38;;;4.30;99.90;;;;;;5072235;28;20669;-85
2021/03/17 12:33:05;;;;;;;5.63;4.15;;;4.40;99.90;;;;;;5070793;28;20197;-88
2021/03/17 12:35:31;;;;;;;5.78;4.07;;;4.20;99.90;;;;;;5069423;28;20621;-84
2021/03/17 12:37:58;;;;;;;10.07;4.82;;;4.20;99.90;;;;;;5070619;28;20686;-82
2021/03/17 12:40:26;;;;;;;7.88;5.20;;;4.30;99.90;;;;;;5071909;28;20255;-85
2021/03/17 12:42:54;;;;;;;6.05;3.75;;;4.50;99.90;;;;;;5069425;28;20280;-87
2021/03/17 12:45:22;;;;;;;7.88;4.30;;;4.60;99.90;;;;;;5071727;28;20720;-87
2021/03/17 12:47:50;;;;;;;10.30;4.57;;;5.20;99.90;;;;;;5071580;28;20315;-83
2021/03/17 12:50:19;;;;;;;6.25;3.92;;;4.70;99.90;;;;;;5069322;28;20221;-86
2021/03/17 12:52:45;;;;;;;9.02;4.80;;;4.70;99.90;;;;;;5071595;28;20297;-83
2021/03/17 12:55:14;;;;;;;10.25;5.45;;;5.00;99.90;;;;;;5071584;28;20710;-85
2021/03/17 12:57:40;;;;;;;6.93;4.72;;;5.20;99.90;;;;;;5070882;28;20529;-87
2021/03/17 13:00:09;;;;;;;7.05;4.72;;;5.60;99.90;;;;;;5072678;28;20247;-84
2021/03/17 13:02:36;;;;;;;4.68;3.97;;;5.70;99.90;;;;;;5071362;28;20251;-85
2021/03/17 13:05:07;;;;;;;7.43;4.38;;;5.60;99.90;;;;;;5069356;28;20637;-86
2021/03/17 13:07:33;;;;;;;7.20;4.63;;;5.70;99.90;;;;;;5065274;28;20308;-84